createdAt,value
2019-02-22T00:02:10.321Z,101698.45
2019-02-22T00:04:39.102Z,101698.98
2019-02-22T00:07:07.958Z,101704.58
2019-02-22T00:09:37.136Z,101702.20
2019-02-22T00:12:06.005Z,101702.25
2019-02-22T00:14:35.170Z,101708.56
2019-02-22T00:17:03.961Z,101707.89
2019-02-22T00:19:32.863Z,101705.86
2019-02-22T00:22:01.962Z,101709.84
2019-02-22T00:24:30.759Z,101719.98
2019-02-22T00:26:59.591Z,101722.30
2019-02-22T00:29:28.735Z,101722.63
2019-02-22T00:31:58.130Z,101718.13
2019-02-22T00:34:27.347Z,101720.31
2019-02-22T00:36:56.174Z,101720.17
2019-02-22T00:39:25.457Z,101726.66
2019-02-22T00:41:54.875Z,101727.66
2019-02-22T00:44:23.681Z,101735.25
2019-02-22T00:46:52.447Z,101738.61
2019-02-22T00:49:21.223Z,101732.27
2019-02-22T00:51:50.080Z,101740.94
2019-02-22T00:54:18.854Z,101752.33
2019-02-22T00:56:47.728Z,101758.73
2019-02-22T00:59:16.555Z,101769.69
2019-02-22T01:01:45.448Z,101772.67
2019-02-22T01:04:14.627Z,101779.53
2019-02-22T01:06:43.495Z,101783.96
2019-02-22T01:09:12.440Z,101781.30
2019-02-22T01:11:41.247Z,101792.44
2019-02-22T01:14:10.022Z,101790.83
2019-02-22T01:16:39.278Z,101796.98
2019-02-22T01:19:08.113Z,101793.15
2019-02-22T01:21:36.875Z,101803.29
2019-02-22T01:24:05.652Z,101800.63
2019-02-22T01:26:34.559Z,101798.46
2019-02-22T01:29:03.471Z,101801.08
2019-02-22T01:31:32.989Z,101804.91
2019-02-22T01:34:02.152Z,101804.39
2019-02-22T01:36:30.937Z,101808.41
2019-02-22T01:38:59.714Z,101815.91
2019-02-22T01:41:28.796Z,101815.76
2019-02-22T01:43:57.570Z,101808.20
2019-02-22T01:46:26.405Z,101818.41
2019-02-22T01:48:55.270Z,101820.25
2019-02-22T01:51:24.254Z,101808.34
2019-02-22T01:53:54.107Z,101809.63
2019-02-22T01:56:22.990Z,101811.95
2019-02-22T01:58:51.791Z,101800.34
2019-02-22T02:01:20.561Z,101798.72
2019-02-22T02:03:49.347Z,101807.83
2019-02-22T02:06:18.406Z,101798.50
2019-02-22T02:08:47.196Z,101809.13
2019-02-22T02:11:15.974Z,101819.59
2019-02-22T02:13:44.765Z,101821.44
2019-02-22T02:16:13.529Z,101829.41
2019-02-22T02:18:42.329Z,101826.16
2019-02-22T02:21:11.124Z,101822.98
2019-02-22T02:23:39.940Z,101826.34
2019-02-22T02:26:09.541Z,101819.55
2019-02-22T02:28:39.139Z,101827.80
2019-02-22T02:31:07.927Z,101834.02
2019-02-22T02:33:37.414Z,101843.24
2019-02-22T02:36:06.370Z,101843.95
2019-02-22T02:38:35.237Z,101855.09
2019-02-22T02:41:08.438Z,101861.63
2019-02-22T02:43:35.192Z,101867.96
2019-02-22T02:46:03.984Z,101869.80
2019-02-22T02:48:33.146Z,101871.80
2019-02-22T02:51:02.614Z,101867.64
2019-02-22T02:53:31.381Z,101871.63
2019-02-22T02:56:00.702Z,101869.67
2019-02-22T02:58:29.509Z,101866.17
2019-02-22T03:00:58.314Z,101858.39
2019-02-22T03:03:27.871Z,101876.67
2019-02-22T03:06:34.239Z,101878.67
2019-02-22T03:09:04.930Z,101883.16
2019-02-22T03:11:34.713Z,101889.66
2019-02-22T03:14:04.593Z,101899.13
2019-02-22T03:16:34.511Z,101896.66
2019-02-22T03:19:04.601Z,101890.83
2019-02-22T03:21:33.401Z,101893.52
2019-02-22T03:24:02.816Z,101889.59
2019-02-22T03:26:31.649Z,101900.03
2019-02-22T03:29:00.513Z,101905.86
2019-02-22T03:31:30.220Z,101905.38
2019-02-22T03:33:59.654Z,101907.87
2019-02-22T03:36:28.771Z,101913.55
2019-02-22T03:38:57.556Z,101920.99
2019-02-22T03:41:32.755Z,101925.30
2019-02-22T03:43:58.072Z,101919.66
2019-02-22T03:46:26.828Z,101922.31
2019-02-22T03:48:56.010Z,101921.71
2019-02-22T03:51:25.604Z,101933.30
2019-02-22T03:54:00.324Z,101939.56
2019-02-22T03:56:30.302Z,101945.56
2019-02-22T03:59:00.307Z,101936.13
2019-02-22T04:01:29.655Z,101940.08
2019-02-22T04:03:59.683Z,101936.77
2019-02-22T04:06:28.756Z,101945.72
2019-02-22T04:08:57.842Z,101941.56
2019-02-22T04:11:27.448Z,101946.87
2019-02-22T04:13:56.759Z,101955.22
2019-02-22T04:16:25.935Z,101957.84
2019-02-22T04:18:55.282Z,101961.63
2019-02-22T04:21:24.119Z,101960.48
2019-02-22T04:23:53.326Z,101956.70
2019-02-22T04:26:23.852Z,101957.48
2019-02-22T04:28:55.121Z,101961.47
2019-02-22T04:31:24.920Z,101966.09
2019-02-22T04:33:54.085Z,101963.13
2019-02-22T04:36:23.289Z,101962.13
2019-02-22T04:38:52.270Z,101965.66
2019-02-22T04:41:21.304Z,101963.81
2019-02-22T04:43:50.444Z,101967.16
2019-02-22T04:46:19.305Z,101970.17
2019-02-22T04:48:49.102Z,101969.66
2019-02-22T04:51:18.652Z,101979.28
2019-02-22T04:53:48.524Z,101982.23
2019-02-22T04:56:18.408Z,101984.08
2019-02-22T04:58:47.885Z,101979.91
2019-02-22T05:01:17.356Z,101982.92
2019-02-22T05:03:46.504Z,101990.38
2019-02-22T05:06:15.696Z,101987.90
2019-02-22T05:08:44.845Z,101993.54
2019-02-22T05:11:13.606Z,101994.17
2019-02-22T05:13:42.794Z,101994.16
2019-02-22T05:16:12.645Z,101996.81
2019-02-22T05:18:42.346Z,101992.83
2019-02-22T05:21:11.997Z,101999.82
2019-02-22T05:23:42.294Z,101999.82
2019-02-22T05:26:12.135Z,102003.34
2019-02-22T05:28:41.968Z,102004.31
2019-02-22T05:31:11.502Z,102002.14
2019-02-22T05:33:40.654Z,102002.30
2019-02-22T05:36:09.782Z,102018.22
2019-02-22T05:38:38.549Z,102015.72
2019-02-22T05:41:07.309Z,102023.69
2019-02-22T05:43:36.139Z,102019.86
2019-02-22T05:46:05.613Z,102026.50
2019-02-22T05:48:34.695Z,102022.87
2019-02-22T05:51:04.242Z,102031.02
2019-02-22T05:53:33.983Z,102031.33
2019-02-22T05:56:03.568Z,102035.31
2019-02-22T05:58:32.341Z,102033.17
2019-02-22T06:01:01.923Z,102032.20
2019-02-22T06:03:31.039Z,102040.64
2019-02-22T06:05:59.874Z,102034.20
2019-02-22T06:08:28.653Z,102036.06
2019-02-22T06:10:57.437Z,102038.90
2019-02-22T06:13:26.228Z,102042.38
2019-02-22T06:15:55.031Z,102048.66
2019-02-22T06:18:24.205Z,102054.29
2019-02-22T06:20:52.978Z,102058.73
2019-02-22T06:23:23.411Z,102063.52
2019-02-22T06:25:55.572Z,102069.98
2019-02-22T06:28:24.837Z,102070.78
2019-02-22T06:30:54.008Z,102073.28
2019-02-22T06:33:22.761Z,102074.27
2019-02-22T06:35:52.539Z,102087.70
2019-02-22T06:38:21.401Z,102086.97
2019-02-22T06:40:50.205Z,102099.09
2019-02-22T06:43:19.320Z,102093.76
2019-02-22T06:45:48.724Z,102102.88
2019-02-22T06:48:17.581Z,102107.38
2019-02-22T06:50:46.348Z,102106.38
2019-02-22T06:53:15.258Z,102116.64
2019-02-22T06:55:44.410Z,102118.91
2019-02-22T06:58:13.606Z,102116.09
2019-02-22T07:00:42.370Z,102126.88
2019-02-22T07:03:11.202Z,102124.75
2019-02-22T07:05:39.979Z,102134.05
2019-02-22T07:08:08.819Z,102141.85
2019-02-22T07:10:55.512Z,102155.13
2019-02-22T07:13:36.421Z,102151.48
2019-02-22T07:16:05.587Z,102160.67
2019-02-22T07:18:34.377Z,102163.80
2019-02-22T07:21:03.256Z,102161.70
2019-02-22T07:23:32.045Z,102163.35
2019-02-22T07:26:00.937Z,102167.03
2019-02-22T07:28:29.750Z,102170.48
2019-02-22T07:30:58.528Z,102170.82
2019-02-22T07:33:27.355Z,102178.58
2019-02-22T07:35:56.170Z,102186.36
2019-02-22T07:38:25.273Z,102197.89
2019-02-22T07:40:54.068Z,102195.30
2019-02-22T07:43:22.875Z,102196.78
2019-02-22T07:45:51.656Z,102206.61
2019-02-22T07:48:20.431Z,102210.77
2019-02-22T07:50:57.441Z,102209.09
2019-02-22T07:53:19.756Z,102211.75
2019-02-22T07:55:48.540Z,102217.38
2019-02-22T07:58:17.349Z,102228.65
2019-02-22T08:00:46.234Z,102229.65
2019-02-22T08:03:15.010Z,102236.67
2019-02-22T08:05:44.187Z,102242.78
2019-02-22T08:08:12.988Z,102245.61
2019-02-22T08:10:41.802Z,102247.77
2019-02-22T08:13:19.244Z,102246.45
2019-02-22T08:15:41.191Z,102253.75
2019-02-22T08:18:10.019Z,102251.41
2019-02-22T08:20:38.813Z,102266.70
2019-02-22T08:23:07.586Z,102270.67
2019-02-22T08:25:40.236Z,102270.17
2019-02-22T08:28:09.083Z,102279.09
2019-02-22T08:30:37.975Z,102283.95
2019-02-22T08:33:06.905Z,102283.27
2019-02-22T08:35:35.677Z,102272.64
2019-02-22T08:38:04.644Z,102281.62
2019-02-22T08:40:33.441Z,102293.89
2019-02-22T08:43:02.244Z,102295.04
2019-02-22T08:45:31.038Z,102297.20
2019-02-22T08:47:59.827Z,102299.00
2019-02-22T08:50:28.594Z,102307.31
2019-02-22T08:52:57.391Z,102317.59
2019-02-22T08:55:26.528Z,102323.41
2019-02-22T08:57:55.308Z,102325.55
2019-02-22T09:00:24.173Z,102326.88
2019-02-22T09:02:53.775Z,102331.50
2019-02-22T09:05:22.561Z,102330.14
2019-02-22T09:07:51.332Z,102331.61
2019-02-22T09:10:20.139Z,102333.66
2019-02-22T09:12:48.951Z,102335.77
2019-02-22T09:15:17.803Z,102336.32
2019-02-22T09:17:46.602Z,102346.95
2019-02-22T09:20:15.436Z,102344.53
2019-02-22T09:22:44.204Z,102341.41
2019-02-22T09:25:13.077Z,102346.89
2019-02-22T09:27:41.952Z,102346.08
2019-02-22T09:30:11.366Z,102351.03
2019-02-22T09:32:40.181Z,102354.86
2019-02-22T09:35:10.421Z,102345.27
2019-02-22T09:37:39.739Z,102344.80
2019-02-22T09:40:09.961Z,102346.59
2019-02-22T09:42:38.749Z,102361.41
2019-02-22T09:45:08.855Z,102356.77
2019-02-22T09:47:37.740Z,102355.27
2019-02-22T09:50:08.274Z,102363.52
2019-02-22T09:52:37.207Z,102363.33
2019-02-22T09:55:07.622Z,102366.05
2019-02-22T09:57:36.494Z,102372.96
2019-02-22T10:00:07.299Z,102376.16
2019-02-22T10:02:36.168Z,102380.92
2019-02-22T10:05:05.318Z,102377.88
2019-02-22T10:07:34.130Z,102371.87
2019-02-22T10:10:02.994Z,102381.06
2019-02-22T10:12:31.769Z,102388.58
2019-02-22T10:15:00.551Z,102394.32
2019-02-22T10:17:29.352Z,102401.27
2019-02-22T10:19:58.155Z,102399.61
2019-02-22T10:22:26.994Z,102405.17
2019-02-22T10:24:55.823Z,102408.80
2019-02-22T10:27:24.668Z,102406.71
2019-02-22T10:29:53.482Z,102411.48
2019-02-22T10:32:22.254Z,102415.30
2019-02-22T10:34:51.058Z,102418.17
2019-02-22T10:37:19.915Z,102422.45
2019-02-22T10:39:48.991Z,102425.02
2019-02-22T10:42:17.867Z,102429.44
2019-02-22T10:44:46.720Z,102429.20
2019-02-22T10:47:15.508Z,102431.44
2019-02-22T10:49:44.306Z,102433.14
2019-02-22T10:52:13.070Z,102439.66
2019-02-22T10:54:41.876Z,102440.98
2019-02-22T10:57:10.649Z,102447.09
2019-02-22T10:59:39.442Z,102442.34
2019-02-22T11:02:08.515Z,102445.16
2019-02-22T11:04:37.389Z,102451.83
2019-02-22T11:07:06.298Z,102459.81
2019-02-22T11:09:35.186Z,102461.58
2019-02-22T11:12:04.045Z,102470.36
2019-02-22T11:14:32.857Z,102474.94
2019-02-22T11:17:01.639Z,102471.51
2019-02-22T11:19:38.320Z,102475.76
2019-02-22T11:22:16.336Z,102468.38
2019-02-22T11:24:54.328Z,102464.16
2019-02-22T11:27:23.588Z,102460.07
2019-02-22T11:29:52.408Z,102468.64
2019-02-22T11:32:21.588Z,102460.00
2019-02-22T11:34:50.363Z,102459.52
2019-02-22T11:37:19.150Z,102471.91
2019-02-22T11:39:47.936Z,102463.94
2019-02-22T11:42:16.745Z,102471.48
2019-02-22T11:44:45.553Z,102473.91
2019-02-22T11:47:14.399Z,102471.99
2019-02-22T11:49:43.189Z,102478.30
2019-02-22T11:52:12.076Z,102483.34
2019-02-22T11:54:40.846Z,102481.02
2019-02-22T11:57:10.378Z,102482.17
2019-02-22T11:59:39.244Z,102488.48
2019-02-22T12:02:08.096Z,102483.66
2019-02-22T12:04:36.904Z,102492.44
2019-02-22T12:07:05.808Z,102493.36
2019-02-22T12:09:35.037Z,102497.81
2019-02-22T12:12:03.851Z,102488.80
2019-02-22T12:14:33.097Z,102491.60
2019-02-22T12:17:04.854Z,102495.23
2019-02-22T12:19:33.663Z,102494.31
2019-02-22T12:22:02.434Z,102498.52
2019-02-22T12:24:31.221Z,102506.81
2019-02-22T12:27:00.069Z,102506.25
2019-02-22T12:29:29.022Z,102513.36
2019-02-22T12:31:57.832Z,102513.77
2019-02-22T12:34:26.616Z,102508.32
2019-02-22T12:36:55.409Z,102506.24
2019-02-22T12:39:24.289Z,102509.81
2019-02-22T12:41:53.759Z,102508.55
2019-02-22T12:44:22.698Z,102505.28
2019-02-22T12:46:51.525Z,102507.91
2019-02-22T12:49:20.325Z,102506.41
2019-02-22T12:51:49.254Z,102510.31
2019-02-22T12:54:18.025Z,102515.91
2019-02-22T12:56:57.571Z,102519.30
2019-02-22T12:59:17.784Z,102527.17
2019-02-22T13:01:46.580Z,102531.34
2019-02-22T13:04:15.387Z,102530.81
2019-02-22T13:06:44.157Z,102530.64
2019-02-22T13:09:13.005Z,102540.04
2019-02-22T13:11:41.797Z,102544.95
2019-02-22T13:14:10.571Z,102553.98
2019-02-22T13:16:39.696Z,102565.80
2019-02-22T13:19:08.467Z,102572.63
2019-02-22T13:21:37.238Z,102574.17
2019-02-22T13:24:06.102Z,102584.73
2019-02-22T13:26:34.963Z,102583.33
2019-02-22T13:29:04.969Z,102593.19
2019-02-22T13:31:33.993Z,102592.34
2019-02-22T13:34:02.859Z,102588.06
2019-02-22T13:36:31.798Z,102588.86
2019-02-22T13:39:00.635Z,102595.98
2019-02-22T13:41:29.500Z,102595.76
2019-02-22T13:43:58.332Z,102597.07
2019-02-22T13:46:28.894Z,102611.77
2019-02-22T13:48:57.887Z,102615.07
2019-02-22T13:51:27.073Z,102609.83
2019-02-22T13:53:55.874Z,102615.41
2019-02-22T13:56:29.659Z,102614.06
2019-02-22T13:58:55.128Z,102618.37
2019-02-22T14:01:24.407Z,102619.28
2019-02-22T14:03:53.176Z,102629.94
2019-02-22T14:06:22.289Z,102636.16
2019-02-22T14:08:51.117Z,102631.47
2019-02-22T14:11:19.892Z,102629.75
2019-02-22T14:13:48.761Z,102628.68
2019-02-22T14:16:17.565Z,102626.53
2019-02-22T14:18:46.355Z,102629.75
2019-02-22T14:21:15.145Z,102633.35
2019-02-22T14:23:43.955Z,102644.77
2019-02-22T14:26:12.910Z,102639.44
2019-02-22T14:28:41.690Z,102647.25
2019-02-22T14:31:10.479Z,102640.11
2019-02-22T14:33:39.247Z,102646.41
2019-02-22T14:36:08.161Z,102648.98
2019-02-22T14:38:37.134Z,102654.39
2019-02-22T14:41:05.895Z,102662.00
2019-02-22T14:43:34.754Z,102657.63
2019-02-22T14:46:03.575Z,102656.14
2019-02-22T14:48:32.350Z,102661.63
2019-02-22T14:51:01.181Z,102662.64
2019-02-22T14:53:29.952Z,102668.34
2019-02-22T14:55:59.871Z,102669.31
2019-02-22T14:58:28.806Z,102673.45
2019-02-22T15:00:57.651Z,102672.90
2019-02-22T15:03:26.458Z,102670.41
2019-02-22T15:05:55.262Z,102674.27
2019-02-22T15:08:24.108Z,102675.04
2019-02-22T15:10:52.900Z,102666.26
2019-02-22T15:13:21.670Z,102668.14
2019-02-22T15:16:24.852Z,102674.41
2019-02-22T15:18:53.681Z,102680.24
2019-02-22T15:21:22.446Z,102684.20
2019-02-22T15:23:51.226Z,102677.75
2019-02-22T15:26:20.026Z,102673.28
2019-02-22T15:28:48.805Z,102672.70
2019-02-22T15:31:17.575Z,102680.38
2019-02-22T15:33:46.384Z,102684.34
2019-02-22T15:36:16.082Z,102680.89
2019-02-22T15:38:45.066Z,102685.02
2019-02-22T15:41:13.862Z,102681.96
2019-02-22T15:43:42.666Z,102688.17
2019-02-22T15:46:12.483Z,102685.58
2019-02-22T15:48:41.450Z,102685.30
2019-02-22T15:51:10.213Z,102686.38
2019-02-22T15:53:39.029Z,102681.01
2019-02-22T15:56:07.805Z,102681.37
2019-02-22T15:58:36.568Z,102687.81
2019-02-22T16:01:05.646Z,102687.27
2019-02-22T16:03:57.836Z,102695.94
2019-02-22T16:06:26.820Z,102697.42
2019-02-22T16:08:55.733Z,102710.73
2019-02-22T16:11:24.730Z,102705.86
2019-02-22T16:13:53.610Z,102706.33
2019-02-22T16:16:23.477Z,102705.36
2019-02-22T16:18:52.438Z,102708.50
2019-02-22T16:21:21.490Z,102711.82
2019-02-22T16:23:50.258Z,102714.63
2019-02-22T16:26:22.437Z,102718.02
2019-02-22T16:28:51.240Z,102720.46
2019-02-22T16:31:20.046Z,102720.75
2019-02-22T16:33:48.936Z,102717.36
2019-02-22T16:36:17.792Z,102719.79
2019-02-22T16:38:46.547Z,102732.00
2019-02-22T16:41:15.378Z,102726.86
2019-02-22T16:43:44.173Z,102733.61
2019-02-22T16:46:12.973Z,102725.69
2019-02-22T16:48:41.809Z,102723.83
2019-02-22T16:51:10.624Z,102734.54
2019-02-22T16:53:39.388Z,102739.75
2019-02-22T16:56:08.239Z,102739.93
2019-02-22T16:58:37.036Z,102740.22
2019-02-22T17:01:05.882Z,102743.64
2019-02-22T17:03:34.994Z,102742.57
2019-02-22T17:06:04.080Z,102748.48
2019-02-22T17:08:32.863Z,102750.62
2019-02-22T17:11:05.011Z,102752.83
2019-02-22T17:13:33.784Z,102755.47
2019-02-22T17:16:02.672Z,102756.13
2019-02-22T17:18:31.446Z,102764.11
2019-02-22T17:21:00.221Z,102770.11
2019-02-22T17:23:29.029Z,102775.61
2019-02-22T17:25:57.819Z,102779.00
2019-02-22T17:28:29.298Z,102779.11
2019-02-22T17:31:01.102Z,102783.12
2019-02-22T17:33:29.866Z,102785.55
2019-02-22T17:35:58.636Z,102781.20
2019-02-22T17:38:27.400Z,102788.42
2019-02-22T17:40:56.277Z,102788.78
2019-02-22T17:43:25.146Z,102796.45
2019-02-22T17:45:53.917Z,102792.00
2019-02-22T17:48:22.691Z,102788.54
2019-02-22T17:50:51.970Z,102790.06
2019-02-22T17:53:20.747Z,102795.48
2019-02-22T17:55:49.547Z,102803.81
2019-02-22T17:58:24.481Z,102798.77
2019-02-22T18:00:48.853Z,102800.75
2019-02-22T18:03:17.645Z,102802.03
2019-02-22T18:05:46.432Z,102811.27
2019-02-22T18:08:15.498Z,102804.62
2019-02-22T18:10:44.319Z,102810.55
2019-02-22T18:13:15.892Z,102811.77
2019-02-22T18:15:46.796Z,102813.55
2019-02-22T18:18:16.824Z,102816.36
2019-02-22T18:20:45.786Z,102822.86
2019-02-22T18:23:14.593Z,102833.19
2019-02-22T18:25:43.436Z,102838.02
2019-02-22T18:28:12.205Z,102832.67
2019-02-22T18:30:41.009Z,102828.52
2019-02-22T18:33:10.955Z,102826.12
2019-02-22T18:35:41.584Z,102834.85
2019-02-22T18:38:10.362Z,102836.20
2019-02-22T18:40:39.184Z,102848.38
2019-02-22T18:43:11.359Z,102848.84
2019-02-22T18:45:40.240Z,102858.92
2019-02-22T18:48:09.050Z,102869.59
2019-02-22T18:50:37.818Z,102864.55
2019-02-22T18:53:06.958Z,102866.61
2019-02-22T18:55:35.729Z,102869.92
2019-02-22T18:58:04.620Z,102861.65
2019-02-22T19:00:33.392Z,102858.80
2019-02-22T19:03:02.171Z,102869.56
2019-02-22T19:05:31.046Z,102866.67
2019-02-22T19:07:59.824Z,102866.52
2019-02-22T19:10:28.603Z,102866.52
2019-02-22T19:12:57.420Z,102857.39
2019-02-22T19:15:26.199Z,102876.14
2019-02-22T19:17:54.992Z,102882.53
2019-02-22T19:20:26.216Z,102879.19
2019-02-22T19:22:54.984Z,102870.79
2019-02-22T19:25:23.756Z,102872.09
2019-02-22T19:27:52.566Z,102874.13
2019-02-22T19:30:21.404Z,102869.16
2019-02-22T19:32:50.174Z,102889.86
2019-02-22T19:35:19.091Z,102889.95
2019-02-22T19:37:47.855Z,102885.04
2019-02-22T19:40:18.530Z,102889.81
2019-02-22T19:42:47.338Z,102888.03
2019-02-22T19:45:16.160Z,102883.50
2019-02-22T19:47:45.035Z,102877.02
2019-02-22T19:50:14.037Z,102882.04
2019-02-22T19:52:42.952Z,102869.94
2019-02-22T19:55:13.079Z,102870.77
2019-02-22T19:57:41.873Z,102866.50
2019-02-22T20:00:13.303Z,102876.31
2019-02-22T20:02:42.088Z,102881.44
2019-02-22T20:05:11.283Z,102885.99
2019-02-22T20:07:40.356Z,102883.74
2019-02-22T20:10:17.723Z,102885.38
2019-02-22T20:12:41.535Z,102881.93
2019-02-22T20:15:12.039Z,102880.95
2019-02-22T20:17:40.955Z,102888.41
2019-02-22T20:20:11.824Z,102892.84
2019-02-22T20:22:40.679Z,102892.60
2019-02-22T20:25:11.114Z,102883.39
2019-02-22T20:27:39.911Z,102878.11
2019-02-22T20:30:11.224Z,102873.66
2019-02-22T20:32:40.413Z,102859.53
2019-02-22T20:35:11.465Z,102857.16
2019-02-22T20:37:40.288Z,102843.59
2019-02-22T20:40:09.211Z,102838.92
2019-02-22T20:42:38.355Z,102840.46
2019-02-22T20:45:07.822Z,102835.09
2019-02-22T20:47:36.625Z,102839.27
2019-02-22T20:50:06.011Z,102845.55
2019-02-22T20:52:34.821Z,102858.98
2019-02-22T20:55:03.723Z,102864.97
2019-02-22T20:57:34.770Z,102873.30
2019-02-22T21:00:03.161Z,102876.85
2019-02-22T21:02:31.964Z,102884.04
2019-02-22T21:05:00.751Z,102891.48
2019-02-22T21:07:29.802Z,102894.79
2019-02-22T21:09:58.599Z,102903.69
2019-02-22T21:12:27.384Z,102907.87
2019-02-22T21:14:56.180Z,102914.68
2019-02-22T21:17:24.986Z,102904.23
2019-02-22T21:19:53.761Z,102909.52
2019-02-22T21:22:23.994Z,102914.78
2019-02-22T21:24:52.824Z,102915.97
2019-02-22T21:27:21.609Z,102911.66
2019-02-22T21:29:50.394Z,102906.88
2019-02-22T21:32:19.191Z,102910.23
2019-02-22T21:34:48.949Z,102915.27
2019-02-22T21:37:17.886Z,102915.77
2019-02-22T21:39:46.762Z,102910.36
2019-02-22T21:42:20.180Z,102903.66
2019-02-22T21:44:46.046Z,102902.93
2019-02-22T21:47:14.845Z,102910.71
2019-02-22T21:49:43.675Z,102909.77
2019-02-22T21:52:12.476Z,102906.55
2019-02-22T21:54:41.240Z,102905.34
2019-02-22T21:57:10.056Z,102908.57
2019-02-22T21:59:38.830Z,102916.83
2019-02-22T22:02:07.589Z,102911.42
2019-02-22T22:04:36.395Z,102916.59
2019-02-22T22:07:05.260Z,102925.42
2019-02-22T22:09:34.037Z,102930.95
2019-02-22T22:12:02.806Z,102934.56
2019-02-22T22:14:31.656Z,102944.48
2019-02-22T22:17:00.417Z,102940.42
2019-02-22T22:19:29.187Z,102941.51
2019-02-22T22:21:57.990Z,102946.23
2019-02-22T22:24:26.769Z,102949.91
2019-02-22T22:26:55.586Z,102942.70
2019-02-22T22:29:24.397Z,102942.45
2019-02-22T22:31:53.171Z,102947.97
2019-02-22T22:34:21.948Z,102937.91
2019-02-22T22:36:50.770Z,102926.77
2019-02-22T22:39:19.555Z,102946.33
2019-02-22T22:41:48.367Z,102948.37
2019-02-22T22:44:17.162Z,102942.23
2019-02-22T22:46:45.949Z,102952.80
2019-02-22T22:49:14.742Z,102942.91
2019-02-22T22:51:43.543Z,102939.55
2019-02-22T22:54:12.403Z,102938.13
2019-02-22T22:56:41.182Z,102944.48
2019-02-22T22:59:10.029Z,102954.54
2019-02-22T23:01:39.446Z,102960.05
2019-02-22T23:04:08.199Z,102956.22
2019-02-22T23:06:37.049Z,102961.04
2019-02-22T23:09:10.478Z,102970.49
2019-02-22T23:11:39.323Z,102972.17
2019-02-22T23:14:08.164Z,102974.22
2019-02-22T23:16:36.962Z,102977.47
2019-02-22T23:19:05.721Z,102985.25
2019-02-22T23:21:34.501Z,102981.41
2019-02-22T23:24:03.302Z,102987.91
2019-02-22T23:26:32.149Z,102986.81
2019-02-22T23:29:01.889Z,102989.55
2019-02-22T23:31:30.788Z,102985.23
2019-02-22T23:33:59.588Z,102977.09
2019-02-22T23:36:28.385Z,102985.44
2019-02-22T23:38:57.161Z,102982.11
2019-02-22T23:41:25.977Z,102976.23
2019-02-22T23:43:54.816Z,102974.31
2019-02-22T23:46:23.587Z,102973.25
2019-02-22T23:48:52.394Z,102973.58
2019-02-22T23:51:21.258Z,102983.27
2019-02-22T23:53:50.033Z,102973.54
2019-02-22T23:56:18.858Z,102975.39
2019-02-22T23:58:47.619Z,102985.28
